createdAt,value
2017-08-27T00:01:08.278Z,17.70
2017-08-27T00:03:36.519Z,17.70
2017-08-27T00:06:04.662Z,17.70
2017-08-27T00:08:33.733Z,17.60
2017-08-27T00:11:02.184Z,17.60
2017-08-27T00:13:30.397Z,17.60
2017-08-27T00:15:58.778Z,17.60
2017-08-27T00:18:27.071Z,17.50
2017-08-27T00:20:55.594Z,17.50
2017-08-27T00:23:23.760Z,17.50
2017-08-27T00:25:52.052Z,17.40
2017-08-27T00:28:20.407Z,17.30
2017-08-27T00:30:48.649Z,17.30
2017-08-27T00:33:17.007Z,17.30
2017-08-27T00:35:45.296Z,17.20
2017-08-27T00:38:13.461Z,17.20
2017-08-27T00:40:42.558Z,17.10
2017-08-27T00:43:10.936Z,17.10
2017-08-27T00:45:40.193Z,17.00
2017-08-27T00:48:08.341Z,17.00
2017-08-27T00:50:36.939Z,17.00
2017-08-27T00:53:05.450Z,16.90
2017-08-27T00:55:33.838Z,16.90
2017-08-27T00:58:02.039Z,16.90
2017-08-27T01:00:30.327Z,16.80
2017-08-27T01:02:58.483Z,16.80
2017-08-27T01:05:26.701Z,16.80
2017-08-27T01:07:55.122Z,16.70
2017-08-27T01:10:27.311Z,16.70
2017-08-27T01:12:55.642Z,16.70
2017-08-27T01:15:23.949Z,16.70
2017-08-27T01:17:52.169Z,16.70
2017-08-27T01:20:20.317Z,16.60
2017-08-27T01:22:48.519Z,16.60
2017-08-27T01:25:16.860Z,16.50
2017-08-27T01:27:45.179Z,16.50
2017-08-27T01:30:13.574Z,16.50
2017-08-27T01:32:50.573Z,16.40
2017-08-27T01:35:18.756Z,16.40
2017-08-27T01:37:46.951Z,16.40
2017-08-27T01:40:16.338Z,16.40
2017-08-27T01:42:44.540Z,16.40
2017-08-27T01:45:12.669Z,16.40
2017-08-27T01:47:40.842Z,16.40
2017-08-27T01:50:09.188Z,16.30
2017-08-27T01:52:37.348Z,16.30
2017-08-27T01:55:07.440Z,16.30
2017-08-27T01:57:36.833Z,16.30
2017-08-27T02:00:05.040Z,16.30
2017-08-27T02:02:33.272Z,16.20
2017-08-27T02:05:04.256Z,16.30
2017-08-27T02:07:32.783Z,16.30
2017-08-27T02:10:00.967Z,16.30
2017-08-27T02:12:29.128Z,16.20
2017-08-27T02:14:57.253Z,16.30
2017-08-27T02:17:27.459Z,16.20
2017-08-27T02:19:55.604Z,16.20
2017-08-27T02:22:23.773Z,16.20
2017-08-27T02:24:54.303Z,16.20
2017-08-27T02:27:23.320Z,16.10
2017-08-27T02:29:51.753Z,16.10
2017-08-27T02:32:20.026Z,16.00
2017-08-27T02:34:48.132Z,16.00
2017-08-27T02:37:16.342Z,15.90
2017-08-27T02:39:44.793Z,15.90
2017-08-27T02:42:13.027Z,15.90
2017-08-27T02:44:41.189Z,15.90
2017-08-27T02:47:09.393Z,15.90
2017-08-27T02:49:37.878Z,15.90
2017-08-27T02:52:25.661Z,15.80
2017-08-27T02:54:53.982Z,15.90
2017-08-27T02:57:23.177Z,15.80
2017-08-27T02:59:52.307Z,15.80
2017-08-27T03:02:20.544Z,15.80
2017-08-27T03:04:48.711Z,15.70
2017-08-27T03:07:16.953Z,15.70
2017-08-27T03:09:48.502Z,15.70
2017-08-27T03:12:16.627Z,15.70
2017-08-27T03:14:45.000Z,15.60
2017-08-27T03:17:13.347Z,15.60
2017-08-27T03:19:41.661Z,15.60
2017-08-27T03:22:09.851Z,15.50
2017-08-27T03:24:37.987Z,15.50
2017-08-27T03:27:06.183Z,15.40
2017-08-27T03:29:36.551Z,15.40
2017-08-27T03:32:04.812Z,15.30
2017-08-27T03:34:33.223Z,15.30
2017-08-27T03:37:03.592Z,15.30
2017-08-27T03:39:33.729Z,15.20
2017-08-27T03:42:08.809Z,15.20
2017-08-27T03:44:37.042Z,15.20
2017-08-27T03:47:06.384Z,15.20
2017-08-27T03:49:34.800Z,15.20
2017-08-27T03:52:03.160Z,15.10
2017-08-27T03:54:31.628Z,15.10
2017-08-27T03:57:03.459Z,15.10
2017-08-27T03:59:33.891Z,15.00
2017-08-27T04:02:02.261Z,15.00
2017-08-27T04:04:31.639Z,15.10
2017-08-27T04:06:59.960Z,15.00
2017-08-27T04:09:37.390Z,15.10
2017-08-27T04:12:05.702Z,15.10
2017-08-27T04:14:34.767Z,15.10
2017-08-27T04:17:03.251Z,15.10
2017-08-27T04:19:32.374Z,15.10
2017-08-27T04:22:01.402Z,15.10
2017-08-27T04:24:30.598Z,15.10
2017-08-27T04:26:58.922Z,15.20
2017-08-27T04:29:28.086Z,15.30
2017-08-27T04:31:57.550Z,15.30
2017-08-27T04:34:27.220Z,15.30
2017-08-27T04:36:56.737Z,15.30
2017-08-27T04:39:25.023Z,15.20
2017-08-27T04:41:58.183Z,15.20
2017-08-27T04:44:40.545Z,15.10
2017-08-27T04:47:08.737Z,15.10
2017-08-27T04:50:01.141Z,15.10
2017-08-27T04:52:29.581Z,15.10
2017-08-27T04:54:57.762Z,15.10
2017-08-27T04:57:26.030Z,15.10
2017-08-27T04:59:54.179Z,15.10
2017-08-27T05:02:22.512Z,15.20
2017-08-27T05:05:07.833Z,15.20
2017-08-27T05:07:36.015Z,15.20
2017-08-27T05:10:04.172Z,15.20
2017-08-27T05:12:32.423Z,15.20
2017-08-27T05:15:02.735Z,15.20
2017-08-27T05:17:31.869Z,15.20
2017-08-27T05:20:00.059Z,15.20
2017-08-27T05:22:28.229Z,15.20
2017-08-27T05:24:56.475Z,15.20
2017-08-27T05:27:24.674Z,15.20
2017-08-27T05:29:52.884Z,15.30
2017-08-27T05:32:21.100Z,15.30
2017-08-27T05:34:50.153Z,15.30
2017-08-27T05:37:18.720Z,15.40
2017-08-27T05:39:46.928Z,15.40
2017-08-27T05:42:16.159Z,15.40
2017-08-27T05:44:44.474Z,15.50
2017-08-27T05:47:12.797Z,15.50
2017-08-27T05:49:44.494Z,15.60
2017-08-27T05:52:12.847Z,15.70
2017-08-27T05:57:32.786Z,15.90
2017-08-27T06:00:21.876Z,15.90
2017-08-27T06:03:00.718Z,16.00
2017-08-27T06:05:33.948Z,16.00
2017-08-27T06:08:02.961Z,16.10
2017-08-27T06:10:34.143Z,16.10
2017-08-27T06:13:07.715Z,16.10
2017-08-27T06:15:48.018Z,16.10
2017-08-27T06:18:18.952Z,16.20
2017-08-27T06:23:22.773Z,16.30
2017-08-27T06:25:51.620Z,16.30
2017-08-27T06:28:19.807Z,16.30
2017-08-27T06:30:48.037Z,16.30
2017-08-27T06:33:16.357Z,16.40
2017-08-27T06:36:00.411Z,16.40
2017-08-27T06:38:28.556Z,16.40
2017-08-27T06:40:59.239Z,16.40
2017-08-27T06:43:27.547Z,16.50
2017-08-27T06:45:56.682Z,16.50
2017-08-27T06:48:25.882Z,16.60
2017-08-27T06:50:55.120Z,16.60
2017-08-27T06:53:23.270Z,16.70
2017-08-27T06:55:58.573Z,16.80
2017-08-27T06:58:26.890Z,16.90
2017-08-27T07:01:00.033Z,17.00
2017-08-27T07:03:29.236Z,17.10
2017-08-27T07:08:53.383Z,17.10
2017-08-27T07:11:21.719Z,17.10
2017-08-27T07:13:50.048Z,17.20
2017-08-27T07:16:18.206Z,17.20
2017-08-27T07:18:47.393Z,17.30
2017-08-27T07:21:29.764Z,17.40
2017-08-27T07:23:59.100Z,17.50
2017-08-27T07:26:28.319Z,17.70
2017-08-27T07:32:07.208Z,17.80
2017-08-27T07:34:36.599Z,18.00
2017-08-27T07:37:04.830Z,18.20
2017-08-27T07:39:35.364Z,18.10
2017-08-27T07:42:03.822Z,18.20
2017-08-27T07:44:34.005Z,18.10
2017-08-27T07:47:25.732Z,17.90
2017-08-27T07:49:57.932Z,18.00
2017-08-27T07:52:26.383Z,18.10
2017-08-27T07:54:56.605Z,18.10
2017-08-27T08:00:24.659Z,18.30
2017-08-27T08:02:55.496Z,18.30
2017-08-27T08:05:24.228Z,18.30
2017-08-27T08:07:52.397Z,18.20
2017-08-27T08:10:24.268Z,18.10
2017-08-27T08:12:53.429Z,18.30
2017-08-27T08:15:21.617Z,18.40
2017-08-27T08:17:49.772Z,18.60
2017-08-27T08:20:18.866Z,18.80
2017-08-27T08:22:47.928Z,19.00
2017-08-27T08:25:16.236Z,19.00
2017-08-27T08:27:44.440Z,18.70
2017-08-27T08:30:12.666Z,18.80
2017-08-27T08:32:42.071Z,19.10
2017-08-27T08:35:10.220Z,19.10
2017-08-27T08:37:38.518Z,19.10
2017-08-27T08:40:07.246Z,19.30
2017-08-27T08:42:37.098Z,19.30
2017-08-27T08:45:06.655Z,19.20
2017-08-27T08:47:34.950Z,19.20
2017-08-27T08:52:59.150Z,19.60
2017-08-27T08:58:37.937Z,19.90
2017-08-27T09:01:06.157Z,19.80
2017-08-27T09:03:37.621Z,19.70
2017-08-27T09:06:06.907Z,19.80
2017-08-27T09:08:35.214Z,19.80
2017-08-27T09:11:03.586Z,19.60
2017-08-27T09:13:32.317Z,19.40
2017-08-27T09:21:59.302Z,19.40
2017-08-27T09:24:29.393Z,19.80
2017-08-27T09:26:58.740Z,19.90
2017-08-27T09:29:27.423Z,19.80
2017-08-27T09:31:55.548Z,19.80
2017-08-27T09:34:24.219Z,19.70
2017-08-27T09:37:02.834Z,19.70
2017-08-27T09:39:31.005Z,19.60
2017-08-27T09:41:59.718Z,19.40
2017-08-27T09:47:49.198Z,19.30
2017-08-27T09:50:28.593Z,19.80
2017-08-27T09:53:00.688Z,20.00
2017-08-27T09:55:28.983Z,20.20
2017-08-27T09:57:57.594Z,20.30
2017-08-27T10:00:26.725Z,20.30
2017-08-27T10:02:57.786Z,20.30
2017-08-27T10:05:26.036Z,20.40
2017-08-27T10:07:54.248Z,20.50
2017-08-27T10:10:28.837Z,20.30
2017-08-27T10:15:56.586Z,20.00
2017-08-27T10:18:24.963Z,20.10
2017-08-27T10:33:26.779Z,20.60
2017-08-27T10:35:56.891Z,20.20
2017-08-27T10:38:26.747Z,20.30
2017-08-27T10:40:58.369Z,20.50
2017-08-27T10:43:27.366Z,20.80
2017-08-27T10:45:57.190Z,20.80
2017-08-27T11:08:55.885Z,21.20
2017-08-27T11:14:56.421Z,21.30
2017-08-27T11:23:57.889Z,20.50
2017-08-27T11:36:03.719Z,20.70
2017-08-27T11:38:57.758Z,21.10
2017-08-27T11:50:56.585Z,21.00
2017-08-27T11:53:27.941Z,21.30
2017-08-27T11:59:06.267Z,21.80
2017-08-27T12:07:56.657Z,20.70
2017-08-27T12:10:26.316Z,20.70
2017-08-27T12:28:52.151Z,21.50
2017-08-27T13:06:13.678Z,21.60
2017-08-27T14:06:27.762Z,21.00
2017-08-27T14:18:25.653Z,20.70
2017-08-27T14:30:29.111Z,20.60
2017-08-27T14:39:28.720Z,20.70
2017-08-27T14:51:57.167Z,20.50
2017-08-27T14:57:39.200Z,20.60
2017-08-27T15:15:50.360Z,20.60
2017-08-27T15:18:26.997Z,20.70
2017-08-27T15:40:09.674Z,20.20
2017-08-27T17:04:39.942Z,19.40
2017-08-27T17:10:18.902Z,19.40
2017-08-27T17:15:48.746Z,19.30
2017-08-27T17:18:25.374Z,19.20
2017-08-27T17:23:43.680Z,19.20
2017-08-27T17:26:27.410Z,19.20
2017-08-27T17:28:58.821Z,19.10
2017-08-27T17:31:54.294Z,19.00
2017-08-27T17:56:15.794Z,18.20
2017-08-27T18:04:38.966Z,17.90
2017-08-27T18:07:12.031Z,17.80
2017-08-27T18:09:40.802Z,17.80
2017-08-27T18:12:12.435Z,17.70
2017-08-27T18:14:44.901Z,17.60
2017-08-27T18:17:20.214Z,17.60
2017-08-27T18:19:52.269Z,17.50
2017-08-27T18:22:48.907Z,17.50
2017-08-27T18:28:28.940Z,17.30
2017-08-27T18:30:58.942Z,17.20
2017-08-27T18:33:31.139Z,17.20
2017-08-27T18:39:10.416Z,17.00
2017-08-27T18:53:37.643Z,17.00
2017-08-27T18:56:23.276Z,16.80
2017-08-27T18:58:51.589Z,16.70
2017-08-27T19:01:28.187Z,16.70
2017-08-27T19:07:01.846Z,16.60
2017-08-27T19:17:16.856Z,16.60
2017-08-27T19:29:16.573Z,16.50
2017-08-27T19:32:23.030Z,16.40
2017-08-27T19:37:59.316Z,16.40
2017-08-27T19:43:42.649Z,16.30
2017-08-27T19:46:51.244Z,16.20
2017-08-27T19:49:35.276Z,16.20
2017-08-27T19:54:56.006Z,16.10
2017-08-27T19:57:27.659Z,16.10
2017-08-27T19:59:59.574Z,16.10
2017-08-27T20:11:46.633Z,16.00
2017-08-27T20:14:23.670Z,16.00
2017-08-27T20:16:58.476Z,15.90
2017-08-27T20:22:39.812Z,15.90
2017-08-27T20:25:31.642Z,15.90
2017-08-27T20:28:02.422Z,15.90
2017-08-27T20:37:02.293Z,15.80
2017-08-27T20:39:33.226Z,15.80
2017-08-27T20:44:56.149Z,15.80
2017-08-27T20:50:25.212Z,15.70
2017-08-27T20:55:49.192Z,15.60
2017-08-27T20:58:19.423Z,15.60
2017-08-27T21:00:54.035Z,15.60
2017-08-27T21:03:26.363Z,15.60
2017-08-27T21:05:59.434Z,15.60
2017-08-27T21:08:35.079Z,15.60
2017-08-27T21:11:09.893Z,15.60
2017-08-27T21:13:42.180Z,15.50
2017-08-27T21:16:12.050Z,15.50
2017-08-27T21:18:55.811Z,15.50
2017-08-27T21:21:27.604Z,15.60
2017-08-27T21:24:05.962Z,15.50
2017-08-27T21:26:44.916Z,15.40
2017-08-27T21:29:14.175Z,15.50
2017-08-27T21:31:46.641Z,15.40
2017-08-27T22:20:46.850Z,15.20
2017-08-27T22:23:15.753Z,15.20
2017-08-27T22:25:44.028Z,15.20
2017-08-27T22:28:15.511Z,15.20
2017-08-27T22:30:46.109Z,15.20
2017-08-27T22:33:14.979Z,15.20
2017-08-27T22:35:43.266Z,15.20
2017-08-27T22:38:11.475Z,15.20
2017-08-27T22:40:39.661Z,15.30
2017-08-27T22:43:08.028Z,15.30
2017-08-27T22:45:42.058Z,15.20
2017-08-27T22:48:12.904Z,15.20
2017-08-27T22:50:44.791Z,15.20
2017-08-27T22:56:07.540Z,15.20
2017-08-27T22:58:38.592Z,15.10
2017-08-27T23:01:06.800Z,15.10
2017-08-27T23:03:35.024Z,15.00
2017-08-27T23:06:03.832Z,15.00
2017-08-27T23:08:32.165Z,15.00
2017-08-27T23:11:01.484Z,14.90
2017-08-27T23:13:32.498Z,14.90
2017-08-27T23:16:06.825Z,14.80
2017-08-27T23:18:35.850Z,14.80
2017-08-27T23:21:10.694Z,14.80
2017-08-27T23:23:41.452Z,14.70
2017-08-27T23:26:12.290Z,14.70
2017-08-27T23:28:41.662Z,14.70
2017-08-27T23:31:10.780Z,14.70
2017-08-27T23:33:39.919Z,14.70
2017-08-27T23:36:08.880Z,14.70
2017-08-27T23:38:38.293Z,14.70
2017-08-27T23:41:06.598Z,14.70
2017-08-27T23:43:34.850Z,14.70
2017-08-27T23:46:03.364Z,14.70
2017-08-27T23:48:31.613Z,14.80
2017-08-27T23:50:59.794Z,14.80
2017-08-27T23:53:28.065Z,14.70
2017-08-27T23:55:56.410Z,14.70
2017-08-27T23:58:24.660Z,14.70
